sensor_id;sensor_type;location;lat;lon;timestamp;P1;durP1;ratioP1;P2;durP2;ratioP2
59310;SDS011;45078;51.654;21.250;2023-09-08T00:01:48;13.52;;;7.45;;
59310;SDS011;45078;51.654;21.250;2023-09-08T00:04:14;12.55;;;7.03;;
59310;SDS011;45078;51.654;21.250;2023-09-08T00:06:40;16.08;;;7.47;;
59310;SDS011;45078;51.654;21.250;2023-09-08T00:09:06;12.32;;;7.30;;
59310;SDS011;45078;51.654;21.250;2023-09-08T00:11:32;13.07;;;7.57;;
59310;SDS011;45078;51.654;21.250;2023-09-08T00:13:58;13.20;;;6.88;;
59310;SDS011;45078;51.654;21.250;2023-09-08T00:16:23;11.43;;;6.80;;
59310;SDS011;45078;51.654;21.250;2023-09-08T00:18:49;9.98;;;7.22;;
59310;SDS011;45078;51.654;21.250;2023-09-08T00:21:15;11.55;;;6.97;;
59310;SDS011;45078;51.654;21.250;2023-09-08T00:23:41;10.68;;;6.95;;
59310;SDS011;45078;51.654;21.250;2023-09-08T00:26:06;12.25;;;7.07;;
59310;SDS011;45078;51.654;21.250;2023-09-08T00:28:32;10.05;;;7.03;;
59310;SDS011;45078;51.654;21.250;2023-09-08T00:30:58;9.98;;;7.22;;
59310;SDS011;45078;51.654;21.250;2023-09-08T00:33:25;13.48;;;7.57;;
59310;SDS011;45078;51.654;21.250;2023-09-08T00:35:51;11.57;;;7.65;;
59310;SDS011;45078;51.654;21.250;2023-09-08T00:38:18;13.25;;;7.22;;
59310;SDS011;45078;51.654;21.250;2023-09-08T00:40:44;14.73;;;7.75;;
59310;SDS011;45078;51.654;21.250;2023-09-08T00:43:09;11.85;;;8.60;;
59310;SDS011;45078;51.654;21.250;2023-09-08T00:45:38;12.65;;;7.70;;
59310;SDS011;45078;51.654;21.250;2023-09-08T00:48:07;13.45;;;7.55;;
59310;SDS011;45078;51.654;21.250;2023-09-08T00:50:33;11.93;;;7.90;;
59310;SDS011;45078;51.654;21.250;2023-09-08T00:53:00;14.57;;;7.75;;
59310;SDS011;45078;51.654;21.250;2023-09-08T00:55:26;13.18;;;8.30;;
59310;SDS011;45078;51.654;21.250;2023-09-08T00:57:52;13.18;;;7.57;;
59310;SDS011;45078;51.654;21.250;2023-09-08T01:00:18;13.00;;;7.22;;
59310;SDS011;45078;51.654;21.250;2023-09-08T01:02:44;13.77;;;7.75;;
59310;SDS011;45078;51.654;21.250;2023-09-08T01:05:10;15.75;;;8.65;;
59310;SDS011;45078;51.654;21.250;2023-09-08T01:07:37;13.13;;;8.45;;
59310;SDS011;45078;51.654;21.250;2023-09-08T01:10:03;13.80;;;8.43;;
59310;SDS011;45078;51.654;21.250;2023-09-08T01:12:31;15.20;;;8.30;;
59310;SDS011;45078;51.654;21.250;2023-09-08T01:14:58;11.02;;;7.72;;
59310;SDS011;45078;51.654;21.250;2023-09-08T01:17:23;11.50;;;8.00;;
59310;SDS011;45078;51.654;21.250;2023-09-08T01:19:50;13.25;;;8.68;;
59310;SDS011;45078;51.654;21.250;2023-09-08T01:27:52;12.93;;;7.85;;
59310;SDS011;45078;51.654;21.250;2023-09-08T01:30:19;12.82;;;8.35;;
59310;SDS011;45078;51.654;21.250;2023-09-08T01:32:46;14.43;;;8.80;;
59310;SDS011;45078;51.654;21.250;2023-09-08T01:35:12;13.23;;;7.97;;
59310;SDS011;45078;51.654;21.250;2023-09-08T01:37:39;15.18;;;8.55;;
59310;SDS011;45078;51.654;21.250;2023-09-08T01:40:07;14.48;;;9.18;;
59310;SDS011;45078;51.654;21.250;2023-09-08T01:42:33;11.10;;;8.13;;
59310;SDS011;45078;51.654;21.250;2023-09-08T01:44:59;15.63;;;8.60;;
59310;SDS011;45078;51.654;21.250;2023-09-08T01:47:25;14.80;;;9.32;;
59310;SDS011;45078;51.654;21.250;2023-09-08T01:49:50;14.52;;;9.07;;
59310;SDS011;45078;51.654;21.250;2023-09-08T01:52:16;12.32;;;8.30;;
59310;SDS011;45078;51.654;21.250;2023-09-08T01:54:41;13.82;;;8.85;;
59310;SDS011;45078;51.654;21.250;2023-09-08T01:57:07;14.32;;;9.13;;
59310;SDS011;45078;51.654;21.250;2023-09-08T01:59:33;15.00;;;9.10;;
59310;SDS011;45078;51.654;21.250;2023-09-08T02:01:58;14.10;;;9.05;;
59310;SDS011;45078;51.654;21.250;2023-09-08T02:04:24;15.60;;;8.43;;
59310;SDS011;45078;51.654;21.250;2023-09-08T02:06:49;13.95;;;8.35;;
59310;SDS011;45078;51.654;21.250;2023-09-08T02:09:15;14.00;;;8.70;;
59310;SDS011;45078;51.654;21.250;2023-09-08T02:11:41;13.48;;;8.52;;
59310;SDS011;45078;51.654;21.250;2023-09-08T02:14:07;15.20;;;9.13;;
59310;SDS011;45078;51.654;21.250;2023-09-08T02:16:33;13.80;;;8.65;;
59310;SDS011;45078;51.654;21.250;2023-09-08T02:18:58;13.07;;;8.68;;
59310;SDS011;45078;51.654;21.250;2023-09-08T02:21:24;12.10;;;8.43;;
59310;SDS011;45078;51.654;21.250;2023-09-08T02:23:50;15.80;;;8.93;;
59310;SDS011;45078;51.654;21.250;2023-09-08T02:26:15;15.70;;;8.95;;
59310;SDS011;45078;51.654;21.250;2023-09-08T02:28:41;13.57;;;8.45;;
59310;SDS011;45078;51.654;21.250;2023-09-08T02:31:06;15.43;;;9.25;;
59310;SDS011;45078;51.654;21.250;2023-09-08T02:33:32;12.35;;;8.30;;
59310;SDS011;45078;51.654;21.250;2023-09-08T02:36:04;14.60;;;8.73;;
59310;SDS011;45078;51.654;21.250;2023-09-08T02:38:30;11.60;;;7.88;;
59310;SDS011;45078;51.654;21.250;2023-09-08T02:40:56;14.55;;;8.07;;
59310;SDS011;45078;51.654;21.250;2023-09-08T02:43:22;14.07;;;8.15;;
59310;SDS011;45078;51.654;21.250;2023-09-08T02:45:48;14.63;;;8.82;;
59310;SDS011;45078;51.654;21.250;2023-09-08T02:48:14;11.93;;;8.18;;
59310;SDS011;45078;51.654;21.250;2023-09-08T02:50:40;10.32;;;7.63;;
59310;SDS011;45078;51.654;21.250;2023-09-08T02:53:05;13.52;;;8.20;;
59310;SDS011;45078;51.654;21.250;2023-09-08T02:55:31;11.23;;;8.30;;
59310;SDS011;45078;51.654;21.250;2023-09-08T02:57:56;13.80;;;9.23;;
59310;SDS011;45078;51.654;21.250;2023-09-08T03:00:22;13.68;;;8.35;;
59310;SDS011;45078;51.654;21.250;2023-09-08T03:02:48;14.68;;;7.90;;
59310;SDS011;45078;51.654;21.250;2023-09-08T03:05:13;12.60;;;8.52;;
59310;SDS011;45078;51.654;21.250;2023-09-08T03:07:39;13.82;;;8.13;;
59310;SDS011;45078;51.654;21.250;2023-09-08T03:10:05;10.25;;;7.65;;
59310;SDS011;45078;51.654;21.250;2023-09-08T03:12:31;14.57;;;8.18;;
59310;SDS011;45078;51.654;21.250;2023-09-08T03:14:57;12.65;;;8.45;;
59310;SDS011;45078;51.654;21.250;2023-09-08T03:17:22;11.95;;;8.65;;
59310;SDS011;45078;51.654;21.250;2023-09-08T03:19:48;15.68;;;8.93;;
59310;SDS011;45078;51.654;21.250;2023-09-08T03:22:13;14.35;;;8.35;;
59310;SDS011;45078;51.654;21.250;2023-09-08T03:24:39;14.48;;;8.65;;
59310;SDS011;45078;51.654;21.250;2023-09-08T03:27:04;14.32;;;9.23;;
59310;SDS011;45078;51.654;21.250;2023-09-08T03:29:30;13.77;;;9.50;;
59310;SDS011;45078;51.654;21.250;2023-09-08T03:31:55;11.57;;;8.48;;
59310;SDS011;45078;51.654;21.250;2023-09-08T03:34:21;14.40;;;8.65;;
59310;SDS011;45078;51.654;21.250;2023-09-08T03:36:47;12.68;;;8.45;;
59310;SDS011;45078;51.654;21.250;2023-09-08T03:39:13;14.15;;;9.00;;
59310;SDS011;45078;51.654;21.250;2023-09-08T03:41:39;14.25;;;9.05;;
59310;SDS011;45078;51.654;21.250;2023-09-08T03:44:04;14.20;;;9.68;;
59310;SDS011;45078;51.654;21.250;2023-09-08T03:46:30;12.45;;;8.73;;
59310;SDS011;45078;51.654;21.250;2023-09-08T03:48:56;11.98;;;8.27;;
59310;SDS011;45078;51.654;21.250;2023-09-08T03:51:25;12.23;;;8.30;;
59310;SDS011;45078;51.654;21.250;2023-09-08T03:53:54;11.60;;;7.95;;
59310;SDS011;45078;51.654;21.250;2023-09-08T03:56:19;13.82;;;8.30;;
59310;SDS011;45078;51.654;21.250;2023-09-08T03:58:45;11.93;;;7.68;;
59310;SDS011;45078;51.654;21.250;2023-09-08T04:01:12;13.38;;;8.88;;
59310;SDS011;45078;51.654;21.250;2023-09-08T04:03:37;11.93;;;7.85;;
59310;SDS011;45078;51.654;21.250;2023-09-08T04:06:03;14.15;;;8.43;;
59310;SDS011;45078;51.654;21.250;2023-09-08T04:08:29;13.18;;;8.63;;
59310;SDS011;45078;51.654;21.250;2023-09-08T04:10:54;13.27;;;8.57;;
59310;SDS011;45078;51.654;21.250;2023-09-08T04:13:20;11.55;;;8.07;;
59310;SDS011;45078;51.654;21.250;2023-09-08T04:15:45;16.10;;;7.93;;
59310;SDS011;45078;51.654;21.250;2023-09-08T04:18:11;12.15;;;8.00;;
59310;SDS011;45078;51.654;21.250;2023-09-08T04:20:36;11.02;;;7.18;;
59310;SDS011;45078;51.654;21.250;2023-09-08T04:23:02;13.82;;;8.32;;
59310;SDS011;45078;51.654;21.250;2023-09-08T04:25:27;11.23;;;7.65;;
59310;SDS011;45078;51.654;21.250;2023-09-08T04:27:53;9.93;;;7.43;;
59310;SDS011;45078;51.654;21.250;2023-09-08T04:30:19;12.77;;;7.68;;
59310;SDS011;45078;51.654;21.250;2023-09-08T04:32:44;10.63;;;7.40;;
59310;SDS011;45078;51.654;21.250;2023-09-08T04:35:10;9.85;;;7.30;;
59310;SDS011;45078;51.654;21.250;2023-09-08T04:37:35;11.38;;;8.23;;
59310;SDS011;45078;51.654;21.250;2023-09-08T04:40:02;12.73;;;8.38;;
59310;SDS011;45078;51.654;21.250;2023-09-08T04:42:28;11.73;;;7.88;;
59310;SDS011;45078;51.654;21.250;2023-09-08T04:44:54;12.65;;;8.30;;
59310;SDS011;45078;51.654;21.250;2023-09-08T04:47:20;16.67;;;8.23;;
59310;SDS011;45078;51.654;21.250;2023-09-08T04:49:45;13.88;;;8.95;;
59310;SDS011;45078;51.654;21.250;2023-09-08T04:52:11;14.43;;;9.65;;
59310;SDS011;45078;51.654;21.250;2023-09-08T04:54:37;16.40;;;10.07;;
59310;SDS011;45078;51.654;21.250;2023-09-08T04:57:02;15.88;;;9.80;;
59310;SDS011;45078;51.654;21.250;2023-09-08T04:59:28;13.38;;;8.85;;
59310;SDS011;45078;51.654;21.250;2023-09-08T05:01:54;11.90;;;8.68;;
59310;SDS011;45078;51.654;21.250;2023-09-08T05:04:19;14.57;;;9.63;;
59310;SDS011;45078;51.654;21.250;2023-09-08T05:06:46;13.82;;;9.10;;
59310;SDS011;45078;51.654;21.250;2023-09-08T05:09:12;14.65;;;8.93;;
59310;SDS011;45078;51.654;21.250;2023-09-08T05:11:37;14.23;;;8.75;;
59310;SDS011;45078;51.654;21.250;2023-09-08T05:14:03;14.95;;;9.60;;
59310;SDS011;45078;51.654;21.250;2023-09-08T05:16:29;10.85;;;8.10;;
59310;SDS011;45078;51.654;21.250;2023-09-08T05:21:28;11.88;;;8.13;;
59310;SDS011;45078;51.654;21.250;2023-09-08T05:23:55;12.38;;;8.55;;
59310;SDS011;45078;51.654;21.250;2023-09-08T05:26:21;12.10;;;9.02;;
59310;SDS011;45078;51.654;21.250;2023-09-08T05:28:46;16.17;;;8.65;;
59310;SDS011;45078;51.654;21.250;2023-09-08T05:31:12;13.88;;;8.98;;
59310;SDS011;45078;51.654;21.250;2023-09-08T05:33:37;15.65;;;8.60;;
59310;SDS011;45078;51.654;21.250;2023-09-08T05:36:03;12.65;;;8.80;;
59310;SDS011;45078;51.654;21.250;2023-09-08T05:38:29;14.45;;;8.27;;
59310;SDS011;45078;51.654;21.250;2023-09-08T05:40:55;11.38;;;8.48;;
59310;SDS011;45078;51.654;21.250;2023-09-08T05:43:20;11.93;;;7.90;;
59310;SDS011;45078;51.654;21.250;2023-09-08T05:45:46;14.60;;;7.72;;
59310;SDS011;45078;51.654;21.250;2023-09-08T05:48:12;13.82;;;8.35;;
59310;SDS011;45078;51.654;21.250;2023-09-08T05:50:37;13.60;;;7.60;;
59310;SDS011;45078;51.654;21.250;2023-09-08T05:53:03;12.80;;;7.93;;
59310;SDS011;45078;51.654;21.250;2023-09-08T05:55:28;12.05;;;7.88;;
59310;SDS011;45078;51.654;21.250;2023-09-08T05:57:55;10.73;;;7.47;;
59310;SDS011;45078;51.654;21.250;2023-09-08T06:00:20;13.40;;;7.55;;
59310;SDS011;45078;51.654;21.250;2023-09-08T06:02:47;12.15;;;7.22;;
59310;SDS011;45078;51.654;21.250;2023-09-08T06:05:12;11.48;;;7.05;;
59310;SDS011;45078;51.654;21.250;2023-09-08T06:07:38;12.48;;;7.05;;
59310;SDS011;45078;51.654;21.250;2023-09-08T06:10:04;11.43;;;6.57;;
59310;SDS011;45078;51.654;21.250;2023-09-08T06:12:30;8.75;;;6.32;;
59310;SDS011;45078;51.654;21.250;2023-09-08T06:14:55;9.05;;;6.25;;
59310;SDS011;45078;51.654;21.250;2023-09-08T06:17:21;11.90;;;6.88;;
59310;SDS011;45078;51.654;21.250;2023-09-08T06:19:46;9.52;;;6.78;;
59310;SDS011;45078;51.654;21.250;2023-09-08T06:22:12;10.15;;;6.50;;
59310;SDS011;45078;51.654;21.250;2023-09-08T06:24:37;11.82;;;6.80;;
59310;SDS011;45078;51.654;21.250;2023-09-08T06:27:03;12.93;;;6.70;;
59310;SDS011;45078;51.654;21.250;2023-09-08T06:29:29;16.27;;;7.07;;
59310;SDS011;45078;51.654;21.250;2023-09-08T06:31:54;8.23;;;6.50;;
59310;SDS011;45078;51.654;21.250;2023-09-08T06:34:20;9.57;;;6.47;;
59310;SDS011;45078;51.654;21.250;2023-09-08T06:36:47;10.77;;;6.97;;
59310;SDS011;45078;51.654;21.250;2023-09-08T06:39:13;9.95;;;6.15;;
59310;SDS011;45078;51.654;21.250;2023-09-08T06:41:39;10.73;;;6.95;;
59310;SDS011;45078;51.654;21.250;2023-09-08T06:44:04;10.15;;;6.25;;
59310;SDS011;45078;51.654;21.250;2023-09-08T06:46:30;11.90;;;6.90;;
59310;SDS011;45078;51.654;21.250;2023-09-08T06:48:56;13.85;;;6.90;;
59310;SDS011;45078;51.654;21.250;2023-09-08T06:51:21;7.93;;;6.22;;
59310;SDS011;45078;51.654;21.250;2023-09-08T06:53:53;12.93;;;6.63;;
59310;SDS011;45078;51.654;21.250;2023-09-08T06:56:22;10.77;;;6.30;;
59310;SDS011;45078;51.654;21.250;2023-09-08T06:58:48;9.40;;;6.43;;
59310;SDS011;45078;51.654;21.250;2023-09-08T07:01:14;8.35;;;5.90;;
59310;SDS011;45078;51.654;21.250;2023-09-08T07:03:40;10.63;;;6.10;;
59310;SDS011;45078;51.654;21.250;2023-09-08T07:06:05;12.55;;;6.35;;
59310;SDS011;45078;51.654;21.250;2023-09-08T07:08:31;11.85;;;6.38;;
59310;SDS011;45078;51.654;21.250;2023-09-08T07:10:57;10.63;;;6.38;;
59310;SDS011;45078;51.654;21.250;2023-09-08T07:13:22;10.50;;;5.72;;
59310;SDS011;45078;51.654;21.250;2023-09-08T07:15:48;9.90;;;6.20;;
59310;SDS011;45078;51.654;21.250;2023-09-08T07:18:13;9.15;;;5.82;;
59310;SDS011;45078;51.654;21.250;2023-09-08T07:20:39;9.90;;;6.05;;
59310;SDS011;45078;51.654;21.250;2023-09-08T07:23:05;10.93;;;6.15;;
59310;SDS011;45078;51.654;21.250;2023-09-08T07:25:31;14.50;;;5.50;;
59310;SDS011;45078;51.654;21.250;2023-09-08T07:27:56;10.27;;;5.43;;
59310;SDS011;45078;51.654;21.250;2023-09-08T07:30:22;9.15;;;6.18;;
59310;SDS011;45078;51.654;21.250;2023-09-08T07:32:48;8.63;;;5.60;;
59310;SDS011;45078;51.654;21.250;2023-09-08T07:35:13;8.38;;;5.70;;
59310;SDS011;45078;51.654;21.250;2023-09-08T07:37:40;8.13;;;5.78;;
59310;SDS011;45078;51.654;21.250;2023-09-08T07:40:07;8.20;;;4.90;;
59310;SDS011;45078;51.654;21.250;2023-09-08T07:42:36;10.70;;;5.20;;
59310;SDS011;45078;51.654;21.250;2023-09-08T07:45:01;11.27;;;5.55;;
59310;SDS011;45078;51.654;21.250;2023-09-08T07:47:27;10.52;;;5.72;;
59310;SDS011;45078;51.654;21.250;2023-09-08T07:50:15;9.77;;;6.25;;
59310;SDS011;45078;51.654;21.250;2023-09-08T07:52:46;8.43;;;5.60;;
59310;SDS011;45078;51.654;21.250;2023-09-08T07:55:16;8.93;;;5.00;;
59310;SDS011;45078;51.654;21.250;2023-09-08T07:57:43;8.35;;;5.13;;
59310;SDS011;45078;51.654;21.250;2023-09-08T08:00:11;6.68;;;4.95;;
59310;SDS011;45078;51.654;21.250;2023-09-08T08:02:37;12.07;;;5.40;;
59310;SDS011;45078;51.654;21.250;2023-09-08T08:05:06;7.93;;;4.75;;
59310;SDS011;45078;51.654;21.250;2023-09-08T08:07:32;9.52;;;5.20;;
59310;SDS011;45078;51.654;21.250;2023-09-08T08:09:58;10.18;;;4.68;;
59310;SDS011;45078;51.654;21.250;2023-09-08T08:12:24;7.57;;;4.60;;
59310;SDS011;45078;51.654;21.250;2023-09-08T08:14:49;7.10;;;4.88;;
59310;SDS011;45078;51.654;21.250;2023-09-08T08:17:15;9.50;;;5.07;;
59310;SDS011;45078;51.654;21.250;2023-09-08T08:19:42;8.10;;;4.60;;
59310;SDS011;45078;51.654;21.250;2023-09-08T08:22:08;6.97;;;4.93;;
59310;SDS011;45078;51.654;21.250;2023-09-08T08:24:34;10.07;;;5.20;;
59310;SDS011;45078;51.654;21.250;2023-09-08T08:26:59;10.35;;;5.25;;
59310;SDS011;45078;51.654;21.250;2023-09-08T08:29:26;6.93;;;4.65;;
59310;SDS011;45078;51.654;21.250;2023-09-08T08:31:52;7.90;;;4.50;;
59310;SDS011;45078;51.654;21.250;2023-09-08T08:34:18;6.85;;;4.45;;
59310;SDS011;45078;51.654;21.250;2023-09-08T08:36:43;6.75;;;4.22;;
59310;SDS011;45078;51.654;21.250;2023-09-08T08:39:09;9.20;;;4.53;;
59310;SDS011;45078;51.654;21.250;2023-09-08T08:41:34;6.45;;;4.25;;
59310;SDS011;45078;51.654;21.250;2023-09-08T08:44:05;6.32;;;4.40;;
59310;SDS011;45078;51.654;21.250;2023-09-08T08:46:31;6.88;;;4.35;;
59310;SDS011;45078;51.654;21.250;2023-09-08T08:48:59;7.68;;;4.50;;
59310;SDS011;45078;51.654;21.250;2023-09-08T08:51:27;7.57;;;4.72;;
59310;SDS011;45078;51.654;21.250;2023-09-08T08:53:55;10.40;;;4.45;;
59310;SDS011;45078;51.654;21.250;2023-09-08T08:56:21;6.28;;;4.00;;
59310;SDS011;45078;51.654;21.250;2023-09-08T08:58:47;9.13;;;4.45;;
59310;SDS011;45078;51.654;21.250;2023-09-08T09:01:13;9.35;;;4.63;;
59310;SDS011;45078;51.654;21.250;2023-09-08T09:03:44;10.05;;;4.35;;
59310;SDS011;45078;51.654;21.250;2023-09-08T09:06:14;6.28;;;4.20;;
59310;SDS011;45078;51.654;21.250;2023-09-08T09:08:40;4.93;;;4.05;;
59310;SDS011;45078;51.654;21.250;2023-09-08T09:11:08;7.38;;;4.55;;
59310;SDS011;45078;51.654;21.250;2023-09-08T09:13:34;9.13;;;4.78;;
59310;SDS011;45078;51.654;21.250;2023-09-08T09:16:00;8.45;;;4.78;;
59310;SDS011;45078;51.654;21.250;2023-09-08T09:18:28;8.10;;;4.22;;
59310;SDS011;45078;51.654;21.250;2023-09-08T09:20:56;6.68;;;4.43;;
59310;SDS011;45078;51.654;21.250;2023-09-08T09:23:30;6.22;;;4.32;;
59310;SDS011;45078;51.654;21.250;2023-09-08T09:25:57;8.95;;;4.38;;
59310;SDS011;45078;51.654;21.250;2023-09-08T09:28:23;4.65;;;3.53;;
59310;SDS011;45078;51.654;21.250;2023-09-08T09:30:52;5.45;;;4.40;;
59310;SDS011;45078;51.654;21.250;2023-09-08T09:33:19;8.27;;;4.38;;
59310;SDS011;45078;51.654;21.250;2023-09-08T09:35:49;5.55;;;4.15;;
59310;SDS011;45078;51.654;21.250;2023-09-08T09:38:16;7.35;;;4.25;;
59310;SDS011;45078;51.654;21.250;2023-09-08T09:40:43;10.35;;;4.38;;
59310;SDS011;45078;51.654;21.250;2023-09-08T09:43:09;6.38;;;3.90;;
59310;SDS011;45078;51.654;21.250;2023-09-08T09:45:36;7.53;;;4.05;;
59310;SDS011;45078;51.654;21.250;2023-09-08T09:48:04;7.75;;;4.00;;
59310;SDS011;45078;51.654;21.250;2023-09-08T09:50:32;6.85;;;4.10;;
59310;SDS011;45078;51.654;21.250;2023-09-08T09:53:00;7.32;;;4.00;;
59310;SDS011;45078;51.654;21.250;2023-09-08T09:55:28;6.10;;;4.20;;
59310;SDS011;45078;51.654;21.250;2023-09-08T09:57:58;8.30;;;4.07;;
59310;SDS011;45078;51.654;21.250;2023-09-08T10:00:28;8.00;;;3.78;;
59310;SDS011;45078;51.654;21.250;2023-09-08T10:02:55;7.68;;;3.85;;
59310;SDS011;45078;51.654;21.250;2023-09-08T10:05:21;7.45;;;4.10;;
59310;SDS011;45078;51.654;21.250;2023-09-08T10:07:51;7.97;;;4.18;;
59310;SDS011;45078;51.654;21.250;2023-09-08T10:10:17;5.40;;;3.80;;
59310;SDS011;45078;51.654;21.250;2023-09-08T10:12:44;5.93;;;3.65;;
59310;SDS011;45078;51.654;21.250;2023-09-08T10:15:11;7.30;;;3.80;;
59310;SDS011;45078;51.654;21.250;2023-09-08T10:17:39;5.72;;;3.33;;
59310;SDS011;45078;51.654;21.250;2023-09-08T10:20:06;7.03;;;3.80;;
59310;SDS011;45078;51.654;21.250;2023-09-08T10:22:41;5.95;;;3.80;;
59310;SDS011;45078;51.654;21.250;2023-09-08T10:25:08;6.05;;;4.72;;
59310;SDS011;45078;51.654;21.250;2023-09-08T10:27:34;6.22;;;3.78;;
59310;SDS011;45078;51.654;21.250;2023-09-08T10:30:03;6.82;;;4.07;;
59310;SDS011;45078;51.654;21.250;2023-09-08T10:32:30;5.38;;;3.83;;
59310;SDS011;45078;51.654;21.250;2023-09-08T10:35:00;6.63;;;3.85;;
59310;SDS011;45078;51.654;21.250;2023-09-08T10:37:28;6.03;;;4.00;;
59310;SDS011;45078;51.654;21.250;2023-09-08T10:39:54;6.70;;;3.50;;
59310;SDS011;45078;51.654;21.250;2023-09-08T10:42:24;5.38;;;3.70;;
59310;SDS011;45078;51.654;21.250;2023-09-08T10:44:56;8.38;;;3.85;;
59310;SDS011;45078;51.654;21.250;2023-09-08T10:47:32;8.63;;;3.80;;
59310;SDS011;45078;51.654;21.250;2023-09-08T10:50:19;5.13;;;3.65;;
59310;SDS011;45078;51.654;21.250;2023-09-08T10:53:03;5.18;;;3.50;;
59310;SDS011;45078;51.654;21.250;2023-09-08T10:55:42;7.03;;;3.70;;
59310;SDS011;45078;51.654;21.250;2023-09-08T11:00:46;5.65;;;3.80;;
59310;SDS011;45078;51.654;21.250;2023-09-08T11:03:25;5.45;;;3.60;;
59310;SDS011;45078;51.654;21.250;2023-09-08T11:05:52;8.95;;;3.85;;
59310;SDS011;45078;51.654;21.250;2023-09-08T11:08:18;8.10;;;3.83;;
59310;SDS011;45078;51.654;21.250;2023-09-08T11:10:44;7.07;;;3.65;;
59310;SDS011;45078;51.654;21.250;2023-09-08T11:13:10;6.90;;;4.60;;
59310;SDS011;45078;51.654;21.250;2023-09-08T11:15:36;13.00;;;4.85;;
59310;SDS011;45078;51.654;21.250;2023-09-08T11:18:05;9.93;;;5.60;;
59310;SDS011;45078;51.654;21.250;2023-09-08T11:20:32;5.63;;;3.80;;
59310;SDS011;45078;51.654;21.250;2023-09-08T11:22:59;5.95;;;3.90;;
59310;SDS011;45078;51.654;21.250;2023-09-08T11:25:24;7.60;;;3.63;;
59310;SDS011;45078;51.654;21.250;2023-09-08T11:27:50;6.68;;;3.83;;
59310;SDS011;45078;51.654;21.250;2023-09-08T11:30:16;5.85;;;3.92;;
59310;SDS011;45078;51.654;21.250;2023-09-08T11:32:42;9.88;;;3.88;;
59310;SDS011;45078;51.654;21.250;2023-09-08T11:35:09;7.18;;;3.47;;
59310;SDS011;45078;51.654;21.250;2023-09-08T11:37:39;6.03;;;3.45;;
59310;SDS011;45078;51.654;21.250;2023-09-08T11:40:06;5.32;;;3.60;;
59310;SDS011;45078;51.654;21.250;2023-09-08T11:42:40;6.00;;;3.78;;
59310;SDS011;45078;51.654;21.250;2023-09-08T11:45:13;5.50;;;3.70;;
59310;SDS011;45078;51.654;21.250;2023-09-08T11:47:43;4.47;;;3.60;;
59310;SDS011;45078;51.654;21.250;2023-09-08T11:50:09;8.35;;;3.72;;
59310;SDS011;45078;51.654;21.250;2023-09-08T11:52:40;5.93;;;3.63;;
59310;SDS011;45078;51.654;21.250;2023-09-08T11:55:10;7.43;;;3.65;;
59310;SDS011;45078;51.654;21.250;2023-09-08T11:57:36;9.25;;;4.00;;
59310;SDS011;45078;51.654;21.250;2023-09-08T12:00:03;5.68;;;3.65;;
59310;SDS011;45078;51.654;21.250;2023-09-08T12:02:33;9.63;;;3.88;;
59310;SDS011;45078;51.654;21.250;2023-09-08T12:05:02;5.20;;;3.30;;
59310;SDS011;45078;51.654;21.250;2023-09-08T12:07:29;4.40;;;3.13;;
59310;SDS011;45078;51.654;21.250;2023-09-08T12:09:54;5.20;;;3.30;;
59310;SDS011;45078;51.654;21.250;2023-09-08T12:12:20;5.35;;;3.60;;
59310;SDS011;45078;51.654;21.250;2023-09-08T12:14:46;6.32;;;3.50;;
59310;SDS011;45078;51.654;21.250;2023-09-08T12:17:11;6.55;;;3.22;;
59310;SDS011;45078;51.654;21.250;2023-09-08T12:19:43;7.50;;;4.00;;
59310;SDS011;45078;51.654;21.250;2023-09-08T12:22:08;9.07;;;3.42;;
59310;SDS011;45078;51.654;21.250;2023-09-08T12:27:13;5.18;;;3.63;;
59310;SDS011;45078;51.654;21.250;2023-09-08T12:29:40;5.88;;;3.55;;
59310;SDS011;45078;51.654;21.250;2023-09-08T12:32:16;5.82;;;3.75;;
59310;SDS011;45078;51.654;21.250;2023-09-08T12:34:41;4.70;;;3.55;;
59310;SDS011;45078;51.654;21.250;2023-09-08T12:37:08;5.40;;;3.80;;
59310;SDS011;45078;51.654;21.250;2023-09-08T12:39:36;4.90;;;3.60;;
59310;SDS011;45078;51.654;21.250;2023-09-08T12:42:03;5.15;;;3.58;;
59310;SDS011;45078;51.654;21.250;2023-09-08T12:44:29;4.85;;;3.58;;
59310;SDS011;45078;51.654;21.250;2023-09-08T12:46:54;7.05;;;3.53;;
59310;SDS011;45078;51.654;21.250;2023-09-08T12:49:20;6.72;;;3.63;;
59310;SDS011;45078;51.654;21.250;2023-09-08T12:51:45;5.18;;;3.55;;
59310;SDS011;45078;51.654;21.250;2023-09-08T12:54:11;5.97;;;3.63;;
59310;SDS011;45078;51.654;21.250;2023-09-08T12:56:37;6.72;;;3.50;;
59310;SDS011;45078;51.654;21.250;2023-09-08T12:59:02;7.10;;;3.55;;
59310;SDS011;45078;51.654;21.250;2023-09-08T13:01:28;6.18;;;3.30;;
59310;SDS011;45078;51.654;21.250;2023-09-08T13:03:54;6.00;;;3.78;;
59310;SDS011;45078;51.654;21.250;2023-09-08T13:06:19;4.57;;;3.10;;
59310;SDS011;45078;51.654;21.250;2023-09-08T13:08:45;4.40;;;3.42;;
59310;SDS011;45078;51.654;21.250;2023-09-08T13:11:10;8.38;;;3.80;;
59310;SDS011;45078;51.654;21.250;2023-09-08T13:13:36;13.70;;;3.60;;
59310;SDS011;45078;51.654;21.250;2023-09-08T13:16:02;4.97;;;3.20;;
59310;SDS011;45078;51.654;21.250;2023-09-08T13:18:27;6.97;;;3.53;;
59310;SDS011;45078;51.654;21.250;2023-09-08T13:20:53;8.48;;;3.80;;
59310;SDS011;45078;51.654;21.250;2023-09-08T13:23:18;7.35;;;3.60;;
59310;SDS011;45078;51.654;21.250;2023-09-08T13:25:44;5.22;;;3.25;;
59310;SDS011;45078;51.654;21.250;2023-09-08T13:28:10;4.00;;;3.05;;
59310;SDS011;45078;51.654;21.250;2023-09-08T13:30:35;5.13;;;3.40;;
59310;SDS011;45078;51.654;21.250;2023-09-08T13:33:01;5.43;;;3.55;;
59310;SDS011;45078;51.654;21.250;2023-09-08T13:35:27;5.03;;;3.60;;
59310;SDS011;45078;51.654;21.250;2023-09-08T13:37:52;8.55;;;3.50;;
59310;SDS011;45078;51.654;21.250;2023-09-08T13:40:18;6.50;;;3.60;;
59310;SDS011;45078;51.654;21.250;2023-09-08T13:42:44;5.30;;;3.47;;
59310;SDS011;45078;51.654;21.250;2023-09-08T13:45:10;8.32;;;3.50;;
59310;SDS011;45078;51.654;21.250;2023-09-08T13:47:35;6.53;;;3.75;;
59310;SDS011;45078;51.654;21.250;2023-09-08T13:50:02;4.35;;;3.40;;
59310;SDS011;45078;51.654;21.250;2023-09-08T13:52:28;4.82;;;3.33;;
59310;SDS011;45078;51.654;21.250;2023-09-08T13:54:54;4.30;;;3.22;;
59310;SDS011;45078;51.654;21.250;2023-09-08T13:57:19;5.15;;;3.38;;
59310;SDS011;45078;51.654;21.250;2023-09-08T13:59:46;4.93;;;2.90;;
59310;SDS011;45078;51.654;21.250;2023-09-08T14:02:11;4.40;;;3.05;;
59310;SDS011;45078;51.654;21.250;2023-09-08T14:04:37;4.00;;;2.97;;
59310;SDS011;45078;51.654;21.250;2023-09-08T14:07:05;4.35;;;2.85;;
59310;SDS011;45078;51.654;21.250;2023-09-08T14:09:30;5.53;;;3.28;;
59310;SDS011;45078;51.654;21.250;2023-09-08T14:11:56;3.50;;;2.88;;
59310;SDS011;45078;51.654;21.250;2023-09-08T14:14:22;3.60;;;2.78;;
59310;SDS011;45078;51.654;21.250;2023-09-08T14:16:49;5.30;;;3.13;;
59310;SDS011;45078;51.654;21.250;2023-09-08T14:19:15;4.57;;;2.95;;
59310;SDS011;45078;51.654;21.250;2023-09-08T14:21:40;7.30;;;2.92;;
59310;SDS011;45078;51.654;21.250;2023-09-08T14:24:06;3.50;;;2.80;;
59310;SDS011;45078;51.654;21.250;2023-09-08T14:26:32;5.10;;;2.80;;
59310;SDS011;45078;51.654;21.250;2023-09-08T14:28:57;8.63;;;3.30;;
59310;SDS011;45078;51.654;21.250;2023-09-08T14:31:23;5.13;;;2.60;;
59310;SDS011;45078;51.654;21.250;2023-09-08T14:33:48;4.40;;;2.75;;
59310;SDS011;45078;51.654;21.250;2023-09-08T14:36:17;7.03;;;3.47;;
59310;SDS011;45078;51.654;21.250;2023-09-08T14:38:44;4.80;;;2.88;;